sensor_id;sensor_type;location;lat;lon;timestamp;temperature;humidity
12436;DHT22;6282;51.440;6.938;2022-11-28T00:00:28;6.90;99.90
12436;DHT22;6282;51.440;6.938;2022-11-28T00:02:55;6.90;99.90
12436;DHT22;6282;51.440;6.938;2022-11-28T00:05:22;6.90;99.90
12436;DHT22;6282;51.440;6.938;2022-11-28T00:07:49;6.90;99.90
12436;DHT22;6282;51.440;6.938;2022-11-28T00:10:16;6.90;99.90
12436;DHT22;6282;51.440;6.938;2022-11-28T00:12:42;6.90;99.90
12436;DHT22;6282;51.440;6.938;2022-11-28T00:15:10;7.00;99.90
12436;DHT22;6282;51.440;6.938;2022-11-28T00:17:38;7.00;99.90
12436;DHT22;6282;51.440;6.938;2022-11-28T00:20:06;7.00;99.90
12436;DHT22;6282;51.440;6.938;2022-11-28T00:22:33;7.10;99.90
12436;DHT22;6282;51.440;6.938;2022-11-28T00:25:00;7.10;99.90
12436;DHT22;6282;51.440;6.938;2022-11-28T00:27:26;7.10;99.90
12436;DHT22;6282;51.440;6.938;2022-11-28T00:29:53;7.10;99.90
12436;DHT22;6282;51.440;6.938;2022-11-28T00:32:21;7.20;99.90
12436;DHT22;6282;51.440;6.938;2022-11-28T00:34:49;7.10;99.90
12436;DHT22;6282;51.440;6.938;2022-11-28T00:37:16;7.10;99.90
12436;DHT22;6282;51.440;6.938;2022-11-28T00:39:43;7.10;99.90
12436;DHT22;6282;51.440;6.938;2022-11-28T00:42:10;7.30;99.90
12436;DHT22;6282;51.440;6.938;2022-11-28T00:44:36;7.20;99.90
12436;DHT22;6282;51.440;6.938;2022-11-28T00:47:03;7.10;99.90
12436;DHT22;6282;51.440;6.938;2022-11-28T00:49:30;7.10;99.90
12436;DHT22;6282;51.440;6.938;2022-11-28T00:51:58;7.10;99.90
12436;DHT22;6282;51.440;6.938;2022-11-28T00:54:25;7.10;99.90
12436;DHT22;6282;51.440;6.938;2022-11-28T00:56:52;7.20;99.90
12436;DHT22;6282;51.440;6.938;2022-11-28T00:59:19;7.30;99.90
12436;DHT22;6282;51.440;6.938;2022-11-28T01:01:46;7.20;99.90
12436;DHT22;6282;51.440;6.938;2022-11-28T01:04:14;7.20;99.90
12436;DHT22;6282;51.440;6.938;2022-11-28T01:06:44;7.30;99.90
12436;DHT22;6282;51.440;6.938;2022-11-28T01:09:14;7.30;99.90
12436;DHT22;6282;51.440;6.938;2022-11-28T01:11:42;7.20;99.90
12436;DHT22;6282;51.440;6.938;2022-11-28T01:14:09;7.30;99.90
12436;DHT22;6282;51.440;6.938;2022-11-28T01:16:37;7.30;99.90
12436;DHT22;6282;51.440;6.938;2022-11-28T01:19:05;7.30;99.90
12436;DHT22;6282;51.440;6.938;2022-11-28T01:21:32;7.30;99.90
12436;DHT22;6282;51.440;6.938;2022-11-28T01:23:59;7.30;99.90
12436;DHT22;6282;51.440;6.938;2022-11-28T01:26:28;7.30;99.90
12436;DHT22;6282;51.440;6.938;2022-11-28T01:28:55;7.30;99.90
12436;DHT22;6282;51.440;6.938;2022-11-28T01:31:24;7.30;99.90
12436;DHT22;6282;51.440;6.938;2022-11-28T01:33:51;7.30;99.90
12436;DHT22;6282;51.440;6.938;2022-11-28T01:36:20;7.30;99.90
12436;DHT22;6282;51.440;6.938;2022-11-28T01:38:47;7.30;99.90
12436;DHT22;6282;51.440;6.938;2022-11-28T01:41:16;7.30;99.90
12436;DHT22;6282;51.440;6.938;2022-11-28T01:44:03;7.30;99.90
12436;DHT22;6282;51.440;6.938;2022-11-28T01:46:32;7.30;99.90
12436;DHT22;6282;51.440;6.938;2022-11-28T01:49:04;7.30;99.90
12436;DHT22;6282;51.440;6.938;2022-11-28T01:51:32;7.30;99.90
12436;DHT22;6282;51.440;6.938;2022-11-28T01:54:00;7.30;99.90
12436;DHT22;6282;51.440;6.938;2022-11-28T01:56:31;7.30;99.90
12436;DHT22;6282;51.440;6.938;2022-11-28T01:59:07;7.40;99.90
12436;DHT22;6282;51.440;6.938;2022-11-28T02:01:35;7.50;99.90
12436;DHT22;6282;51.440;6.938;2022-11-28T02:04:03;7.30;99.90
12436;DHT22;6282;51.440;6.938;2022-11-28T02:06:31;7.40;99.90
12436;DHT22;6282;51.440;6.938;2022-11-28T02:08:58;7.40;99.90
12436;DHT22;6282;51.440;6.938;2022-11-28T02:11:49;7.30;99.90
12436;DHT22;6282;51.440;6.938;2022-11-28T02:14:34;7.30;99.90
12436;DHT22;6282;51.440;6.938;2022-11-28T02:17:11;7.40;99.90
12436;DHT22;6282;51.440;6.938;2022-11-28T02:22:46;7.30;99.90
12436;DHT22;6282;51.440;6.938;2022-11-28T02:25:39;7.30;99.90
12436;DHT22;6282;51.440;6.938;2022-11-28T02:34:39;7.40;99.90
12436;DHT22;6282;51.440;6.938;2022-11-28T02:37:13;7.40;99.90
12436;DHT22;6282;51.440;6.938;2022-11-28T02:39:44;7.40;99.90
12436;DHT22;6282;51.440;6.938;2022-11-28T02:42:21;7.40;99.90
12436;DHT22;6282;51.440;6.938;2022-11-28T02:44:54;7.40;99.90
12436;DHT22;6282;51.440;6.938;2022-11-28T02:47:24;7.40;99.90
12436;DHT22;6282;51.440;6.938;2022-11-28T02:49:57;7.40;99.90
12436;DHT22;6282;51.440;6.938;2022-11-28T02:52:31;7.30;99.90
12436;DHT22;6282;51.440;6.938;2022-11-28T02:54:59;7.30;99.90
12436;DHT22;6282;51.440;6.938;2022-11-28T02:57:34;7.20;99.90
12436;DHT22;6282;51.440;6.938;2022-11-28T03:00:19;7.20;99.90
12436;DHT22;6282;51.440;6.938;2022-11-28T03:02:53;7.10;99.90
12436;DHT22;6282;51.440;6.938;2022-11-28T03:05:29;7.10;99.90
12436;DHT22;6282;51.440;6.938;2022-11-28T03:08:10;7.00;99.90
12436;DHT22;6282;51.440;6.938;2022-11-28T03:10:49;7.00;99.90
12436;DHT22;6282;51.440;6.938;2022-11-28T03:13:21;7.00;99.90
12436;DHT22;6282;51.440;6.938;2022-11-28T03:15:57;7.00;99.90
12436;DHT22;6282;51.440;6.938;2022-11-28T03:18:32;7.10;99.90
12436;DHT22;6282;51.440;6.938;2022-11-28T03:21:06;7.00;99.90
12436;DHT22;6282;51.440;6.938;2022-11-28T03:23:42;7.10;99.90
12436;DHT22;6282;51.440;6.938;2022-11-28T03:26:14;7.00;99.90
12436;DHT22;6282;51.440;6.938;2022-11-28T03:28:46;7.00;99.90
12436;DHT22;6282;51.440;6.938;2022-11-28T03:31:18;7.00;99.90
12436;DHT22;6282;51.440;6.938;2022-11-28T03:33:49;7.00;99.90
12436;DHT22;6282;51.440;6.938;2022-11-28T03:36:20;7.00;99.90
12436;DHT22;6282;51.440;6.938;2022-11-28T03:38:51;7.00;99.90
12436;DHT22;6282;51.440;6.938;2022-11-28T03:41:23;7.00;99.90
12436;DHT22;6282;51.440;6.938;2022-11-28T03:43:53;7.00;99.90
12436;DHT22;6282;51.440;6.938;2022-11-28T03:46:23;7.00;99.90
12436;DHT22;6282;51.440;6.938;2022-11-28T03:48:55;7.00;99.90
12436;DHT22;6282;51.440;6.938;2022-11-28T03:51:29;6.80;99.90
12436;DHT22;6282;51.440;6.938;2022-11-28T03:54:01;6.90;99.90
12436;DHT22;6282;51.440;6.938;2022-11-28T03:56:34;6.90;99.90
12436;DHT22;6282;51.440;6.938;2022-11-28T03:59:09;7.00;99.90
12436;DHT22;6282;51.440;6.938;2022-11-28T04:01:45;6.90;99.90
12436;DHT22;6282;51.440;6.938;2022-11-28T04:04:15;6.90;99.90
12436;DHT22;6282;51.440;6.938;2022-11-28T04:06:52;6.90;99.90
12436;DHT22;6282;51.440;6.938;2022-11-28T04:09:29;6.90;99.90
12436;DHT22;6282;51.440;6.938;2022-11-28T04:12:07;6.90;99.90
12436;DHT22;6282;51.440;6.938;2022-11-28T04:14:40;6.90;99.90
12436;DHT22;6282;51.440;6.938;2022-11-28T04:17:14;6.90;99.90
12436;DHT22;6282;51.440;6.938;2022-11-28T04:19:47;6.80;99.90
12436;DHT22;6282;51.440;6.938;2022-11-28T04:22:19;6.90;99.90
12436;DHT22;6282;51.440;6.938;2022-11-28T04:24:49;7.10;99.90
12436;DHT22;6282;51.440;6.938;2022-11-28T04:27:20;6.90;99.90
12436;DHT22;6282;51.440;6.938;2022-11-28T04:29:55;6.90;99.90
12436;DHT22;6282;51.440;6.938;2022-11-28T04:32:24;6.80;99.90
12436;DHT22;6282;51.440;6.938;2022-11-28T04:34:55;6.80;99.90
12436;DHT22;6282;51.440;6.938;2022-11-28T04:37:24;6.80;99.90
12436;DHT22;6282;51.440;6.938;2022-11-28T04:39:53;6.80;99.90
12436;DHT22;6282;51.440;6.938;2022-11-28T04:42:25;6.80;99.90
12436;DHT22;6282;51.440;6.938;2022-11-28T04:44:57;6.80;99.90
12436;DHT22;6282;51.440;6.938;2022-11-28T04:47:25;6.90;99.90
12436;DHT22;6282;51.440;6.938;2022-11-28T04:49:52;6.80;99.90
12436;DHT22;6282;51.440;6.938;2022-11-28T04:52:24;6.90;99.90
12436;DHT22;6282;51.440;6.938;2022-11-28T04:54:58;7.00;99.90
12436;DHT22;6282;51.440;6.938;2022-11-28T04:57:31;6.80;99.90
12436;DHT22;6282;51.440;6.938;2022-11-28T05:00:01;6.80;99.90
12436;DHT22;6282;51.440;6.938;2022-11-28T05:02:30;6.80;99.90
12436;DHT22;6282;51.440;6.938;2022-11-28T05:04:57;6.70;99.90
12436;DHT22;6282;51.440;6.938;2022-11-28T05:07:26;6.70;99.90
12436;DHT22;6282;51.440;6.938;2022-11-28T05:09:52;6.70;99.90
12436;DHT22;6282;51.440;6.938;2022-11-28T05:12:22;6.70;99.90
12436;DHT22;6282;51.440;6.938;2022-11-28T05:14:48;6.70;99.90
12436;DHT22;6282;51.440;6.938;2022-11-28T05:17:15;6.70;99.90
12436;DHT22;6282;51.440;6.938;2022-11-28T05:19:42;6.70;99.90
12436;DHT22;6282;51.440;6.938;2022-11-28T05:22:09;6.70;99.90
12436;DHT22;6282;51.440;6.938;2022-11-28T05:24:37;6.70;99.90
12436;DHT22;6282;51.440;6.938;2022-11-28T05:27:04;6.70;99.90
12436;DHT22;6282;51.440;6.938;2022-11-28T05:29:31;6.60;99.90
12436;DHT22;6282;51.440;6.938;2022-11-28T05:31:58;6.70;99.90
12436;DHT22;6282;51.440;6.938;2022-11-28T05:34:25;6.90;99.90
12436;DHT22;6282;51.440;6.938;2022-11-28T05:36:52;6.70;99.90
12436;DHT22;6282;51.440;6.938;2022-11-28T05:39:19;6.70;99.90
12436;DHT22;6282;51.440;6.938;2022-11-28T05:41:47;6.70;99.90
12436;DHT22;6282;51.440;6.938;2022-11-28T05:44:14;6.70;99.90
12436;DHT22;6282;51.440;6.938;2022-11-28T05:46:41;6.70;99.90
12436;DHT22;6282;51.440;6.938;2022-11-28T05:49:08;6.70;99.90
12436;DHT22;6282;51.440;6.938;2022-11-28T05:51:35;6.70;99.90
12436;DHT22;6282;51.440;6.938;2022-11-28T05:54:02;6.80;99.90
12436;DHT22;6282;51.440;6.938;2022-11-28T05:56:28;6.80;99.90
12436;DHT22;6282;51.440;6.938;2022-11-28T05:58:57;6.80;99.90
12436;DHT22;6282;51.440;6.938;2022-11-28T06:01:25;6.80;99.90
12436;DHT22;6282;51.440;6.938;2022-11-28T06:03:53;6.80;99.90
12436;DHT22;6282;51.440;6.938;2022-11-28T06:06:25;6.80;99.90
12436;DHT22;6282;51.440;6.938;2022-11-28T06:08:52;6.80;99.90
12436;DHT22;6282;51.440;6.938;2022-11-28T06:11:20;6.80;99.90
12436;DHT22;6282;51.440;6.938;2022-11-28T06:13:48;6.80;99.90
12436;DHT22;6282;51.440;6.938;2022-11-28T06:16:18;6.80;99.90
12436;DHT22;6282;51.440;6.938;2022-11-28T06:18:45;6.80;99.90
12436;DHT22;6282;51.440;6.938;2022-11-28T06:21:13;6.80;99.90
12436;DHT22;6282;51.440;6.938;2022-11-28T06:23:41;6.80;99.90
12436;DHT22;6282;51.440;6.938;2022-11-28T06:26:09;6.90;99.90
12436;DHT22;6282;51.440;6.938;2022-11-28T06:28:36;6.80;99.90
12436;DHT22;6282;51.440;6.938;2022-11-28T06:31:03;6.80;99.90
12436;DHT22;6282;51.440;6.938;2022-11-28T06:33:32;6.80;99.90
12436;DHT22;6282;51.440;6.938;2022-11-28T06:35:59;6.90;99.90
12436;DHT22;6282;51.440;6.938;2022-11-28T06:38:26;6.80;99.90
12436;DHT22;6282;51.440;6.938;2022-11-28T06:40:55;6.80;99.90
12436;DHT22;6282;51.440;6.938;2022-11-28T06:43:23;6.80;99.90
12436;DHT22;6282;51.440;6.938;2022-11-28T06:45:50;6.90;99.90
12436;DHT22;6282;51.440;6.938;2022-11-28T06:48:17;6.80;99.90
12436;DHT22;6282;51.440;6.938;2022-11-28T06:50:46;6.80;99.90
12436;DHT22;6282;51.440;6.938;2022-11-28T06:53:13;6.80;99.90
12436;DHT22;6282;51.440;6.938;2022-11-28T06:55:40;6.80;99.90
12436;DHT22;6282;51.440;6.938;2022-11-28T06:58:07;6.80;99.90
12436;DHT22;6282;51.440;6.938;2022-11-28T07:00:34;6.90;99.90
12436;DHT22;6282;51.440;6.938;2022-11-28T07:03:02;6.90;99.90
12436;DHT22;6282;51.440;6.938;2022-11-28T07:05:28;6.90;99.90
12436;DHT22;6282;51.440;6.938;2022-11-28T07:07:57;6.90;99.90
12436;DHT22;6282;51.440;6.938;2022-11-28T07:10:25;6.90;99.90
12436;DHT22;6282;51.440;6.938;2022-11-28T07:12:52;6.90;99.90
12436;DHT22;6282;51.440;6.938;2022-11-28T07:15:20;7.00;99.90
12436;DHT22;6282;51.440;6.938;2022-11-28T07:17:46;7.00;99.90
12436;DHT22;6282;51.440;6.938;2022-11-28T07:20:13;7.00;99.90
12436;DHT22;6282;51.440;6.938;2022-11-28T07:22:40;7.00;99.90
12436;DHT22;6282;51.440;6.938;2022-11-28T07:25:09;7.00;99.90
12436;DHT22;6282;51.440;6.938;2022-11-28T07:27:36;7.00;99.90
12436;DHT22;6282;51.440;6.938;2022-11-28T07:30:04;7.10;99.90
12436;DHT22;6282;51.440;6.938;2022-11-28T07:32:31;7.10;99.90
12436;DHT22;6282;51.440;6.938;2022-11-28T07:34:57;7.10;99.90
12436;DHT22;6282;51.440;6.938;2022-11-28T07:37:24;7.20;99.90
12436;DHT22;6282;51.440;6.938;2022-11-28T07:39:51;7.20;99.90
12436;DHT22;6282;51.440;6.938;2022-11-28T07:42:19;7.20;99.90
12436;DHT22;6282;51.440;6.938;2022-11-28T07:44:46;7.20;99.90
12436;DHT22;6282;51.440;6.938;2022-11-28T07:47:13;7.30;99.90
12436;DHT22;6282;51.440;6.938;2022-11-28T07:49:40;7.30;99.90
12436;DHT22;6282;51.440;6.938;2022-11-28T07:52:07;7.30;99.90
12436;DHT22;6282;51.440;6.938;2022-11-28T07:54:33;7.20;99.90
12436;DHT22;6282;51.440;6.938;2022-11-28T07:57:00;7.30;99.90
12436;DHT22;6282;51.440;6.938;2022-11-28T07:59:28;7.30;99.90
12436;DHT22;6282;51.440;6.938;2022-11-28T08:01:55;7.30;99.90
12436;DHT22;6282;51.440;6.938;2022-11-28T08:04:22;7.30;99.90
12436;DHT22;6282;51.440;6.938;2022-11-28T08:06:49;7.30;99.90
12436;DHT22;6282;51.440;6.938;2022-11-28T08:09:16;7.20;99.90
12436;DHT22;6282;51.440;6.938;2022-11-28T08:11:43;7.20;99.90
12436;DHT22;6282;51.440;6.938;2022-11-28T08:14:10;7.30;99.90
12436;DHT22;6282;51.440;6.938;2022-11-28T08:16:40;7.20;99.90
12436;DHT22;6282;51.440;6.938;2022-11-28T08:19:09;7.30;99.90
12436;DHT22;6282;51.440;6.938;2022-11-28T08:21:37;7.30;99.90
12436;DHT22;6282;51.440;6.938;2022-11-28T08:24:04;7.20;99.90
12436;DHT22;6282;51.440;6.938;2022-11-28T08:26:33;7.30;99.90
12436;DHT22;6282;51.440;6.938;2022-11-28T08:29:01;7.30;99.90
12436;DHT22;6282;51.440;6.938;2022-11-28T08:31:31;7.30;99.90
12436;DHT22;6282;51.440;6.938;2022-11-28T08:34:01;7.40;99.90
12436;DHT22;6282;51.440;6.938;2022-11-28T08:36:28;7.40;99.90
12436;DHT22;6282;51.440;6.938;2022-11-28T08:38:56;7.40;99.90
12436;DHT22;6282;51.440;6.938;2022-11-28T08:41:22;7.40;99.90
12436;DHT22;6282;51.440;6.938;2022-11-28T08:43:49;7.40;99.90
12436;DHT22;6282;51.440;6.938;2022-11-28T08:46:17;7.40;99.90
12436;DHT22;6282;51.440;6.938;2022-11-28T08:48:45;7.40;99.90
12436;DHT22;6282;51.440;6.938;2022-11-28T08:51:18;7.60;99.90
12436;DHT22;6282;51.440;6.938;2022-11-28T08:53:45;7.40;99.90
12436;DHT22;6282;51.440;6.938;2022-11-28T08:56:12;7.40;99.90
12436;DHT22;6282;51.440;6.938;2022-11-28T08:58:39;7.50;99.90
12436;DHT22;6282;51.440;6.938;2022-11-28T09:01:14;7.40;99.90
12436;DHT22;6282;51.440;6.938;2022-11-28T09:03:41;7.50;99.90
12436;DHT22;6282;51.440;6.938;2022-11-28T09:06:07;7.70;99.90
12436;DHT22;6282;51.440;6.938;2022-11-28T09:08:36;7.40;99.90
12436;DHT22;6282;51.440;6.938;2022-11-28T09:11:05;7.50;99.90
12436;DHT22;6282;51.440;6.938;2022-11-28T09:13:32;7.50;99.90
12436;DHT22;6282;51.440;6.938;2022-11-28T09:15:59;7.50;99.90
12436;DHT22;6282;51.440;6.938;2022-11-28T09:18:26;7.50;99.90
12436;DHT22;6282;51.440;6.938;2022-11-28T09:20:56;7.50;99.90
12436;DHT22;6282;51.440;6.938;2022-11-28T09:23:23;7.50;99.90
12436;DHT22;6282;51.440;6.938;2022-11-28T09:25:51;7.50;99.90
12436;DHT22;6282;51.440;6.938;2022-11-28T09:28:18;7.50;99.90
12436;DHT22;6282;51.440;6.938;2022-11-28T09:30:45;7.50;99.90
12436;DHT22;6282;51.440;6.938;2022-11-28T09:33:12;7.50;99.90
12436;DHT22;6282;51.440;6.938;2022-11-28T09:35:39;7.50;99.90
12436;DHT22;6282;51.440;6.938;2022-11-28T09:38:07;7.50;99.90
12436;DHT22;6282;51.440;6.938;2022-11-28T09:40:36;7.40;99.90
12436;DHT22;6282;51.440;6.938;2022-11-28T09:43:11;7.50;99.90
12436;DHT22;6282;51.440;6.938;2022-11-28T09:45:39;7.50;99.90
12436;DHT22;6282;51.440;6.938;2022-11-28T09:48:20;7.50;99.90
12436;DHT22;6282;51.440;6.938;2022-11-28T09:50:50;7.50;99.90
12436;DHT22;6282;51.440;6.938;2022-11-28T09:53:22;7.50;99.90
12436;DHT22;6282;51.440;6.938;2022-11-28T09:55:52;7.50;99.90
12436;DHT22;6282;51.440;6.938;2022-11-28T09:58:27;7.50;99.90
12436;DHT22;6282;51.440;6.938;2022-11-28T10:01:05;7.60;99.90
12436;DHT22;6282;51.440;6.938;2022-11-28T10:03:41;7.40;99.90
12436;DHT22;6282;51.440;6.938;2022-11-28T10:06:16;7.30;99.90
12436;DHT22;6282;51.440;6.938;2022-11-28T10:08:58;7.30;99.90
12436;DHT22;6282;51.440;6.938;2022-11-28T10:11:37;7.40;99.90
12436;DHT22;6282;51.440;6.938;2022-11-28T10:14:29;7.30;99.90
12436;DHT22;6282;51.440;6.938;2022-11-28T10:17:01;7.30;99.90
12436;DHT22;6282;51.440;6.938;2022-11-28T10:19:34;7.30;99.90
12436;DHT22;6282;51.440;6.938;2022-11-28T10:22:06;7.40;99.90
12436;DHT22;6282;51.440;6.938;2022-11-28T10:24:38;7.30;99.90
12436;DHT22;6282;51.440;6.938;2022-11-28T10:27:09;7.40;99.90
12436;DHT22;6282;51.440;6.938;2022-11-28T10:29:44;7.30;99.90
12436;DHT22;6282;51.440;6.938;2022-11-28T10:32:15;7.30;99.90
12436;DHT22;6282;51.440;6.938;2022-11-28T10:34:48;7.40;99.90
12436;DHT22;6282;51.440;6.938;2022-11-28T10:37:23;7.40;99.90
12436;DHT22;6282;51.440;6.938;2022-11-28T10:39:50;7.40;99.90
12436;DHT22;6282;51.440;6.938;2022-11-28T10:42:22;7.30;99.90
12436;DHT22;6282;51.440;6.938;2022-11-28T10:45:02;7.30;99.90
12436;DHT22;6282;51.440;6.938;2022-11-28T10:47:57;7.40;99.90
12436;DHT22;6282;51.440;6.938;2022-11-28T10:50:35;7.40;99.90
12436;DHT22;6282;51.440;6.938;2022-11-28T10:53:10;7.40;99.90
12436;DHT22;6282;51.440;6.938;2022-11-28T10:55:45;7.40;99.90
12436;DHT22;6282;51.440;6.938;2022-11-28T10:58:21;7.40;99.90
12436;DHT22;6282;51.440;6.938;2022-11-28T11:00:53;7.40;99.90
12436;DHT22;6282;51.440;6.938;2022-11-28T11:03:25;7.40;99.90
12436;DHT22;6282;51.440;6.938;2022-11-28T11:05:53;7.50;99.90
12436;DHT22;6282;51.440;6.938;2022-11-28T11:08:22;7.60;99.90
12436;DHT22;6282;51.440;6.938;2022-11-28T11:10:50;7.60;99.90
12436;DHT22;6282;51.440;6.938;2022-11-28T11:13:19;7.60;99.90
12436;DHT22;6282;51.440;6.938;2022-11-28T11:15:49;7.60;99.90
12436;DHT22;6282;51.440;6.938;2022-11-28T11:18:24;7.60;99.90
12436;DHT22;6282;51.440;6.938;2022-11-28T11:21:08;7.60;99.90
12436;DHT22;6282;51.440;6.938;2022-11-28T11:23:35;7.70;99.90
12436;DHT22;6282;51.440;6.938;2022-11-28T11:26:02;7.70;99.90
12436;DHT22;6282;51.440;6.938;2022-11-28T11:28:40;7.70;99.90
12436;DHT22;6282;51.440;6.938;2022-11-28T11:31:16;7.70;99.90
12436;DHT22;6282;51.440;6.938;2022-11-28T11:33:45;7.50;99.90
12436;DHT22;6282;51.440;6.938;2022-11-28T11:36:25;7.60;99.90
12436;DHT22;6282;51.440;6.938;2022-11-28T11:39:04;7.60;99.90
12436;DHT22;6282;51.440;6.938;2022-11-28T11:41:32;7.60;99.90
12436;DHT22;6282;51.440;6.938;2022-11-28T11:44:25;7.60;99.90
12436;DHT22;6282;51.440;6.938;2022-11-28T11:46:55;7.70;99.90
12436;DHT22;6282;51.440;6.938;2022-11-28T11:49:34;7.70;99.90
12436;DHT22;6282;51.440;6.938;2022-11-28T11:52:04;7.60;99.90
12436;DHT22;6282;51.440;6.938;2022-11-28T11:54:31;7.60;99.90
12436;DHT22;6282;51.440;6.938;2022-11-28T11:56:58;7.60;99.90
12436;DHT22;6282;51.440;6.938;2022-11-28T11:59:29;7.60;99.90
12436;DHT22;6282;51.440;6.938;2022-11-28T12:02:00;7.60;99.90
12436;DHT22;6282;51.440;6.938;2022-11-28T12:04:33;7.70;99.90
12436;DHT22;6282;51.440;6.938;2022-11-28T12:07:03;7.50;99.90
12436;DHT22;6282;51.440;6.938;2022-11-28T12:09:37;7.60;99.90
12436;DHT22;6282;51.440;6.938;2022-11-28T12:12:12;7.60;99.90
12436;DHT22;6282;51.440;6.938;2022-11-28T12:14:39;7.60;99.90
12436;DHT22;6282;51.440;6.938;2022-11-28T12:17:23;7.60;99.90
12436;DHT22;6282;51.440;6.938;2022-11-28T12:20:06;7.60;99.90
12436;DHT22;6282;51.440;6.938;2022-11-28T12:22:44;7.50;99.90
12436;DHT22;6282;51.440;6.938;2022-11-28T12:25:18;7.60;99.90
12436;DHT22;6282;51.440;6.938;2022-11-28T12:28:00;7.50;99.90
12436;DHT22;6282;51.440;6.938;2022-11-28T12:30:37;7.50;99.90
12436;DHT22;6282;51.440;6.938;2022-11-28T12:33:19;7.50;99.90
12436;DHT22;6282;51.440;6.938;2022-11-28T12:36:03;7.50;99.90
12436;DHT22;6282;51.440;6.938;2022-11-28T12:38:43;7.50;99.90
12436;DHT22;6282;51.440;6.938;2022-11-28T12:41:28;7.50;99.90
12436;DHT22;6282;51.440;6.938;2022-11-28T12:44:04;7.50;99.90
12436;DHT22;6282;51.440;6.938;2022-11-28T12:46:39;7.40;99.90
12436;DHT22;6282;51.440;6.938;2022-11-28T12:49:15;7.40;99.90
12436;DHT22;6282;51.440;6.938;2022-11-28T12:51:59;7.40;99.90
12436;DHT22;6282;51.440;6.938;2022-11-28T12:54:43;7.50;99.90
12436;DHT22;6282;51.440;6.938;2022-11-28T12:57:18;7.50;99.90
12436;DHT22;6282;51.440;6.938;2022-11-28T12:59:53;7.50;99.90
12436;DHT22;6282;51.440;6.938;2022-11-28T13:02:31;7.50;99.90
12436;DHT22;6282;51.440;6.938;2022-11-28T13:05:24;7.50;99.90
12436;DHT22;6282;51.440;6.938;2022-11-28T13:08:21;7.50;99.90
12436;DHT22;6282;51.440;6.938;2022-11-28T13:10:58;7.50;99.90
12436;DHT22;6282;51.440;6.938;2022-11-28T13:13:31;7.70;99.90
12436;DHT22;6282;51.440;6.938;2022-11-28T13:16:06;7.70;99.90
12436;DHT22;6282;51.440;6.938;2022-11-28T13:18:39;7.60;99.90
12436;DHT22;6282;51.440;6.938;2022-11-28T13:21:16;7.60;99.90
12436;DHT22;6282;51.440;6.938;2022-11-28T13:23:50;7.70;99.90
12436;DHT22;6282;51.440;6.938;2022-11-28T13:26:33;7.70;99.90
12436;DHT22;6282;51.440;6.938;2022-11-28T13:29:12;7.60;99.90
12436;DHT22;6282;51.440;6.938;2022-11-28T13:31:46;7.60;99.90
12436;DHT22;6282;51.440;6.938;2022-11-28T13:34:16;7.60;99.90
12436;DHT22;6282;51.440;6.938;2022-11-28T13:36:53;7.50;99.90
12436;DHT22;6282;51.440;6.938;2022-11-28T13:39:30;7.60;99.90
12436;DHT22;6282;51.440;6.938;2022-11-28T13:42:07;7.60;99.90
12436;DHT22;6282;51.440;6.938;2022-11-28T13:44:42;7.60;99.90
12436;DHT22;6282;51.440;6.938;2022-11-28T13:47:12;7.60;99.90
12436;DHT22;6282;51.440;6.938;2022-11-28T13:49:40;7.60;99.90
12436;DHT22;6282;51.440;6.938;2022-11-28T13:52:30;7.60;99.90
12436;DHT22;6282;51.440;6.938;2022-11-28T13:54:58;7.60;99.90
12436;DHT22;6282;51.440;6.938;2022-11-28T13:57:28;7.70;99.90
12436;DHT22;6282;51.440;6.938;2022-11-28T13:59:59;7.60;99.90
12436;DHT22;6282;51.440;6.938;2022-11-28T14:02:34;7.60;99.90
12436;DHT22;6282;51.440;6.938;2022-11-28T14:05:15;7.60;99.90
12436;DHT22;6282;51.440;6.938;2022-11-28T14:07:46;7.60;99.90
12436;DHT22;6282;51.440;6.938;2022-11-28T14:10:40;7.60;99.90
12436;DHT22;6282;51.440;6.938;2022-11-28T14:13:21;7.60;99.90
12436;DHT22;6282;51.440;6.938;2022-11-28T14:16:04;7.60;99.90
12436;DHT22;6282;51.440;6.938;2022-11-28T14:18:55;7.80;99.90
12436;DHT22;6282;51.440;6.938;2022-11-28T14:21:32;7.70;99.90
12436;DHT22;6282;51.440;6.938;2022-11-28T14:24:11;7.70;99.90
12436;DHT22;6282;51.440;6.938;2022-11-28T14:26:42;7.70;99.90
12436;DHT22;6282;51.440;6.938;2022-11-28T14:29:19;7.70;99.90
12436;DHT22;6282;51.440;6.938;2022-11-28T14:31:46;7.60;99.90
12436;DHT22;6282;51.440;6.938;2022-11-28T14:34:36;7.70;99.90
12436;DHT22;6282;51.440;6.938;2022-11-28T14:43:24;7.70;99.90
12436;DHT22;6282;51.440;6.938;2022-11-28T14:46:15;7.70;99.90
12436;DHT22;6282;51.440;6.938;2022-11-28T14:49:20;7.70;99.90
12436;DHT22;6282;51.440;6.938;2022-11-28T14:54:56;7.70;99.90
12436;DHT22;6282;51.440;6.938;2022-11-28T14:57:25;7.70;99.90
12436;DHT22;6282;51.440;6.938;2022-11-28T14:59:56;7.70;99.90
12436;DHT22;6282;51.440;6.938;2022-11-28T15:02:46;7.60;99.90
12436;DHT22;6282;51.440;6.938;2022-11-28T15:05:35;7.70;99.90
12436;DHT22;6282;51.440;6.938;2022-11-28T15:08:31;7.80;99.90
12436;DHT22;6282;51.440;6.938;2022-11-28T15:14:19;7.80;99.90
12436;DHT22;6282;51.440;6.938;2022-11-28T15:16:50;7.80;99.90
12436;DHT22;6282;51.440;6.938;2022-11-28T15:19:22;7.80;99.90
12436;DHT22;6282;51.440;6.938;2022-11-28T15:21:51;7.80;99.90
12436;DHT22;6282;51.440;6.938;2022-11-28T15:24:23;7.80;99.90
12436;DHT22;6282;51.440;6.938;2022-11-28T15:26:51;7.80;99.90
12436;DHT22;6282;51.440;6.938;2022-11-28T15:29:20;7.80;99.90
12436;DHT22;6282;51.440;6.938;2022-11-28T15:31:50;7.80;99.90
12436;DHT22;6282;51.440;6.938;2022-11-28T15:34:23;7.80;99.90
12436;DHT22;6282;51.440;6.938;2022-11-28T15:36:51;7.80;99.90
12436;DHT22;6282;51.440;6.938;2022-11-28T15:39:30;7.80;99.90
12436;DHT22;6282;51.440;6.938;2022-11-28T15:42:00;7.80;99.90
12436;DHT22;6282;51.440;6.938;2022-11-28T15:44:27;7.80;99.90
12436;DHT22;6282;51.440;6.938;2022-11-28T15:46:56;7.90;99.90
12436;DHT22;6282;51.440;6.938;2022-11-28T15:49:29;7.80;99.90
12436;DHT22;6282;51.440;6.938;2022-11-28T15:51:58;7.90;99.90
12436;DHT22;6282;51.440;6.938;2022-11-28T15:54:32;7.90;99.90
12436;DHT22;6282;51.440;6.938;2022-11-28T15:57:00;7.90;99.90
12436;DHT22;6282;51.440;6.938;2022-11-28T15:59:27;7.80;99.90
12436;DHT22;6282;51.440;6.938;2022-11-28T16:01:58;7.90;99.90
12436;DHT22;6282;51.440;6.938;2022-11-28T16:04:28;7.80;99.90
12436;DHT22;6282;51.440;6.938;2022-11-28T16:06:57;7.80;99.90
12436;DHT22;6282;51.440;6.938;2022-11-28T16:09:28;7.90;99.90
12436;DHT22;6282;51.440;6.938;2022-11-28T16:11:57;7.90;99.90
12436;DHT22;6282;51.440;6.938;2022-11-28T16:14:26;7.90;99.90
12436;DHT22;6282;51.440;6.938;2022-11-28T16:16:54;7.80;99.90
12436;DHT22;6282;51.440;6.938;2022-11-28T16:19:26;7.80;99.90
12436;DHT22;6282;51.440;6.938;2022-11-28T16:21:55;7.80;99.90
12436;DHT22;6282;51.440;6.938;2022-11-28T16:24:26;7.80;99.90
12436;DHT22;6282;51.440;6.938;2022-11-28T16:26:55;7.90;99.90
12436;DHT22;6282;51.440;6.938;2022-11-28T16:29:25;7.90;99.90
12436;DHT22;6282;51.440;6.938;2022-11-28T16:31:52;8.00;99.90
12436;DHT22;6282;51.440;6.938;2022-11-28T16:34:45;7.90;99.90
12436;DHT22;6282;51.440;6.938;2022-11-28T16:37:12;7.90;99.90
12436;DHT22;6282;51.440;6.938;2022-11-28T16:39:40;7.90;99.90
12436;DHT22;6282;51.440;6.938;2022-11-28T16:42:14;7.90;99.90
12436;DHT22;6282;51.440;6.938;2022-11-28T16:44:41;7.90;99.90
12436;DHT22;6282;51.440;6.938;2022-11-28T16:47:25;7.90;99.90
12436;DHT22;6282;51.440;6.938;2022-11-28T16:50:17;7.90;99.90
12436;DHT22;6282;51.440;6.938;2022-11-28T16:52:49;7.90;99.90